createdAt,value
2018-08-03T00:02:24.971Z,83.90
2018-08-03T00:04:54.380Z,83.50
2018-08-03T00:07:23.785Z,82.40
2018-08-03T00:09:53.338Z,82.70
2018-08-03T00:12:22.772Z,81.80
2018-08-03T00:14:52.192Z,80.20
2018-08-03T00:17:21.888Z,79.40
2018-08-03T00:19:51.748Z,78.90
2018-08-03T00:22:21.656Z,79.50
2018-08-03T00:24:51.360Z,77.80
2018-08-03T00:27:21.081Z,77.80
2018-08-03T00:29:50.863Z,76.90
2018-08-03T00:32:20.572Z,76.20
2018-08-03T00:34:50.317Z,76.80
2018-08-03T00:37:20.163Z,76.00
2018-08-03T00:39:53.972Z,75.40
2018-08-03T00:42:23.631Z,75.60
2018-08-03T00:44:53.457Z,75.00
2018-08-03T00:47:23.288Z,73.80
2018-08-03T00:49:53.075Z,73.30
2018-08-03T00:52:22.891Z,73.00
2018-08-03T00:54:52.673Z,72.00
2018-08-03T00:57:22.418Z,70.40
2018-08-03T00:59:52.228Z,70.50
2018-08-03T01:02:22.084Z,70.30
2018-08-03T01:04:51.753Z,69.90
2018-08-03T01:07:21.602Z,69.30
2018-08-03T01:09:51.380Z,68.80
2018-08-03T01:12:21.063Z,68.80
2018-08-03T01:14:55.288Z,68.60
2018-08-03T01:17:28.274Z,68.40
2018-08-03T01:19:59.472Z,68.20
2018-08-03T01:22:29.444Z,68.30
2018-08-03T01:24:59.316Z,66.80
2018-08-03T01:27:29.060Z,64.20
2018-08-03T01:29:58.832Z,65.50
2018-08-03T01:32:28.599Z,65.60
2018-08-03T01:34:58.353Z,64.10
2018-08-03T01:37:28.002Z,62.00
2018-08-03T01:39:57.619Z,59.90
2018-08-03T01:42:27.479Z,59.70
2018-08-03T01:44:57.243Z,62.10
2018-08-03T01:47:27.001Z,63.50
2018-08-03T01:49:56.713Z,61.50
2018-08-03T01:52:26.352Z,61.90
2018-08-03T01:54:56.107Z,61.40
2018-08-03T01:57:25.789Z,62.40
2018-08-03T01:59:55.571Z,62.40
2018-08-03T02:02:25.312Z,63.60
2018-08-03T02:04:55.120Z,45.30
2018-08-03T02:07:24.938Z,16.30
2018-08-03T02:09:54.736Z,1.00
2018-08-03T02:12:24.528Z,1.00
2018-08-03T02:14:54.057Z,1.00
2018-08-03T02:17:23.753Z,1.00
2018-08-03T02:19:53.586Z,1.00
2018-08-03T02:22:23.389Z,1.00
2018-08-03T02:24:53.219Z,1.00
2018-08-03T02:27:23.000Z,1.00
2018-08-03T02:29:52.786Z,1.00
2018-08-03T02:32:22.543Z,1.00
2018-08-03T02:34:52.640Z,1.00
2018-08-03T02:37:22.358Z,99.90
2018-08-03T02:39:52.029Z,1.00
2018-08-03T02:42:21.800Z,1.00
2018-08-03T02:44:51.540Z,1.00
2018-08-03T02:47:21.171Z,1.00
2018-08-03T02:49:50.932Z,1.00
2018-08-03T02:52:20.681Z,1.00
2018-08-03T02:54:50.341Z,1.00
2018-08-03T02:57:20.046Z,83.60
2018-08-03T02:59:49.662Z,99.90
2018-08-03T03:02:19.372Z,1.00
2018-08-03T03:04:49.337Z,1.00
2018-08-03T03:07:19.083Z,1.00
2018-08-03T03:09:48.865Z,1.00
2018-08-03T03:12:18.517Z,1.00
2018-08-03T03:14:48.404Z,1.00
2018-08-03T03:17:18.037Z,1.00
2018-08-03T03:19:48.007Z,1.00
2018-08-03T03:22:17.774Z,1.00
2018-08-03T03:24:47.478Z,1.00
2018-08-03T03:27:17.238Z,1.00
2018-08-03T03:29:46.999Z,1.00
2018-08-03T03:32:16.716Z,1.00
2018-08-03T03:34:46.413Z,1.00
2018-08-03T03:37:16.109Z,1.00
2018-08-03T03:39:45.791Z,1.00
2018-08-03T03:44:44.542Z,99.90
2018-08-03T03:47:14.405Z,20.20
2018-08-03T03:49:44.193Z,37.90
2018-08-03T03:52:14.045Z,1.00
2018-08-03T03:54:43.887Z,22.10
2018-08-03T03:57:13.760Z,98.90
2018-08-03T03:59:43.413Z,99.90
2018-08-03T04:02:13.172Z,5.40
2018-08-03T04:04:42.941Z,69.70
2018-08-03T04:07:12.740Z,99.90
2018-08-03T04:09:42.464Z,99.90
2018-08-03T04:12:12.252Z,1.00
2018-08-03T04:14:42.080Z,1.00
2018-08-03T04:17:11.799Z,1.00
2018-08-03T04:19:41.560Z,1.00
2018-08-03T04:22:11.302Z,99.90
2018-08-03T04:24:41.103Z,1.00
2018-08-03T04:27:10.843Z,1.00
2018-08-03T04:29:40.700Z,1.00
2018-08-03T04:32:10.467Z,1.00
2018-08-03T04:34:40.328Z,1.00
2018-08-03T04:37:10.080Z,1.00
2018-08-03T04:39:39.891Z,1.00
2018-08-03T04:42:09.823Z,1.00
2018-08-03T04:44:39.661Z,1.00
2018-08-03T04:47:09.391Z,1.00
2018-08-03T04:49:39.046Z,1.00
2018-08-03T04:52:08.912Z,1.00
2018-08-03T04:54:38.741Z,1.00
2018-08-03T04:57:08.263Z,1.00
2018-08-03T04:59:37.890Z,1.00
2018-08-03T05:02:07.600Z,1.00
2018-08-03T05:04:37.371Z,1.00
2018-08-03T05:07:07.128Z,1.00
2018-08-03T05:09:36.797Z,1.00
2018-08-03T05:12:06.534Z,1.00
2018-08-03T05:14:36.286Z,1.00
2018-08-03T05:17:06.058Z,1.00
2018-08-03T05:19:35.642Z,1.00
2018-08-03T05:22:05.532Z,1.00
2018-08-03T05:24:35.197Z,1.00
2018-08-03T05:27:05.047Z,1.00
2018-08-03T05:29:34.704Z,1.00
2018-08-03T05:32:04.422Z,1.00
2018-08-03T05:34:34.136Z,1.00
2018-08-03T05:37:04.012Z,1.00
2018-08-03T05:39:33.749Z,1.00
2018-08-03T05:42:03.563Z,1.00
2018-08-03T05:44:33.533Z,1.00
2018-08-03T05:47:03.169Z,1.00
2018-08-03T05:49:32.868Z,1.00
2018-08-03T05:52:02.616Z,1.00
2018-08-03T05:54:32.475Z,1.00
2018-08-03T05:59:31.321Z,1.00
2018-08-03T06:02:01.200Z,1.00
2018-08-03T06:04:30.848Z,1.00
2018-08-03T06:07:00.721Z,1.00
2018-08-03T06:09:30.646Z,1.00
2018-08-03T06:12:00.446Z,1.00
2018-08-03T06:14:30.192Z,1.00
2018-08-03T06:16:59.968Z,1.00
2018-08-03T06:19:29.528Z,1.00
2018-08-03T06:21:59.328Z,1.00
2018-08-03T06:24:29.042Z,1.00
2018-08-03T06:26:58.823Z,1.00
2018-08-03T06:29:28.629Z,1.00
2018-08-03T06:31:58.317Z,1.00
2018-08-03T06:34:27.990Z,1.00
2018-08-03T06:36:57.798Z,1.00
2018-08-03T06:39:27.669Z,1.00
2018-08-03T06:41:57.521Z,1.00
2018-08-03T06:44:27.225Z,1.00
2018-08-03T06:46:56.951Z,1.00
2018-08-03T06:49:26.692Z,1.00
2018-08-03T06:52:02.647Z,1.00
2018-08-03T06:54:43.965Z,1.00
2018-08-03T06:57:15.008Z,1.00
2018-08-03T06:59:45.472Z,1.00
2018-08-03T07:02:15.751Z,1.00
2018-08-03T07:04:45.385Z,1.00
2018-08-03T07:07:15.157Z,1.00
2018-08-03T07:12:14.216Z,1.00
2018-08-03T07:14:44.090Z,1.00
2018-08-03T07:19:43.015Z,1.00
2018-08-03T07:22:12.728Z,1.00
2018-08-03T07:24:42.436Z,1.00
2018-08-03T07:27:12.215Z,1.00
2018-08-03T07:32:11.069Z,1.00
2018-08-03T07:34:40.964Z,1.00
2018-08-03T07:37:10.714Z,1.00
2018-08-03T07:39:40.572Z,99.90
2018-08-03T07:42:10.424Z,1.00
2018-08-03T07:44:40.373Z,45.40
2018-08-03T07:47:10.549Z,46.20
2018-08-03T07:49:40.173Z,47.40
2018-08-03T07:52:10.014Z,35.90
2018-08-03T07:54:39.797Z,99.90
2018-08-03T07:57:09.617Z,48.00
2018-08-03T07:59:39.278Z,44.20
2018-08-03T08:02:09.153Z,72.10
2018-08-03T08:04:39.006Z,30.30
2018-08-03T08:07:08.865Z,28.90
2018-08-03T08:09:38.748Z,22.60
2018-08-03T08:12:08.581Z,18.60
2018-08-03T08:14:38.444Z,61.00
2018-08-03T08:17:08.306Z,99.90
2018-08-03T08:19:38.176Z,1.00
2018-08-03T08:24:37.242Z,1.00
2018-08-03T08:27:07.258Z,99.90
2018-08-03T08:29:37.044Z,99.90
2018-08-03T08:32:06.836Z,99.90
2018-08-03T08:34:36.492Z,1.00
2018-08-03T08:37:06.364Z,1.00
2018-08-03T08:39:36.121Z,1.00
2018-08-03T08:42:06.134Z,14.20
2018-08-03T08:44:35.937Z,99.90
2018-08-03T08:47:05.656Z,1.00
2018-08-03T08:49:37.434Z,99.90
2018-08-03T08:52:06.949Z,99.90
2018-08-03T08:54:36.405Z,1.00
2018-08-03T08:57:06.032Z,99.90
2018-08-03T08:59:35.905Z,99.90
2018-08-03T09:02:05.348Z,99.90
2018-08-03T09:04:34.789Z,99.90
2018-08-03T09:07:04.260Z,1.00
2018-08-03T09:09:33.660Z,47.20
2018-08-03T09:12:03.037Z,1.00
2018-08-03T09:14:32.879Z,1.00
2018-08-03T09:17:03.813Z,1.00
2018-08-03T09:19:33.613Z,1.00
2018-08-03T09:22:05.103Z,1.00
2018-08-03T09:24:34.498Z,1.00
2018-08-03T09:27:03.995Z,19.00
2018-08-03T09:29:33.424Z,42.90
2018-08-03T09:32:02.948Z,42.40
2018-08-03T09:34:32.448Z,44.00
2018-08-03T09:37:01.919Z,44.80
2018-08-03T09:39:31.414Z,44.90
2018-08-03T09:42:00.911Z,44.10
2018-08-03T09:44:30.327Z,44.50
2018-08-03T09:46:59.764Z,45.20
2018-08-03T09:49:29.159Z,44.80
2018-08-03T09:51:58.644Z,42.80
2018-08-03T09:54:28.078Z,42.20
2018-08-03T09:56:57.477Z,43.20
2018-08-03T09:59:26.865Z,43.40
2018-08-03T10:01:56.306Z,44.00
2018-08-03T10:04:25.715Z,45.30
2018-08-03T10:06:55.129Z,44.90
2018-08-03T10:09:24.542Z,45.00
2018-08-03T10:11:53.964Z,44.70
2018-08-03T10:14:23.353Z,43.40
2018-08-03T10:16:52.771Z,43.10
2018-08-03T10:19:22.236Z,41.50
2018-08-03T10:21:51.651Z,40.50
2018-08-03T10:24:21.066Z,39.20
2018-08-03T10:26:50.538Z,37.10
2018-08-03T10:29:20.156Z,36.40
2018-08-03T10:31:49.553Z,35.60
2018-08-03T10:34:19.006Z,37.80
2018-08-03T10:36:48.393Z,37.10
2018-08-03T10:39:17.811Z,38.90
2018-08-03T10:41:47.200Z,38.80
2018-08-03T10:46:45.492Z,41.00
2018-08-03T10:49:14.912Z,42.40
2018-08-03T10:51:44.325Z,41.30
2018-08-03T10:54:13.746Z,41.70
2018-08-03T10:56:43.217Z,44.40
2018-08-03T10:59:12.636Z,42.20
2018-08-03T11:01:42.190Z,42.30
2018-08-03T11:04:11.549Z,43.60
2018-08-03T11:06:41.000Z,42.20
2018-08-03T11:09:10.952Z,44.00
2018-08-03T11:11:40.394Z,42.00
2018-08-03T11:14:09.913Z,43.50
2018-08-03T11:16:39.349Z,43.80
2018-08-03T11:19:08.749Z,44.80
2018-08-03T11:21:38.221Z,43.70
2018-08-03T11:24:07.707Z,44.30
2018-08-03T11:26:37.209Z,43.90
2018-08-03T11:29:06.636Z,43.70
2018-08-03T11:31:36.070Z,44.60
2018-08-03T11:34:05.858Z,44.40
2018-08-03T11:36:35.339Z,44.00
2018-08-03T11:39:06.363Z,44.30
2018-08-03T11:41:36.002Z,44.00
2018-08-03T11:44:06.312Z,42.80
2018-08-03T11:46:35.773Z,43.80
2018-08-03T11:49:05.261Z,43.90
2018-08-03T11:51:34.754Z,43.40
2018-08-03T11:54:04.285Z,43.20
2018-08-03T11:56:33.681Z,42.40
2018-08-03T11:59:03.141Z,42.50
2018-08-03T12:01:32.550Z,43.70
2018-08-03T12:04:02.016Z,44.10
2018-08-03T12:06:31.493Z,44.50
2018-08-03T12:09:01.009Z,44.70
2018-08-03T12:11:30.495Z,44.70
2018-08-03T12:13:59.931Z,44.40
2018-08-03T12:16:29.344Z,43.10
2018-08-03T12:18:58.845Z,44.70
2018-08-03T12:21:28.266Z,43.90
2018-08-03T12:23:57.752Z,44.10
2018-08-03T12:26:27.162Z,44.70
2018-08-03T12:28:56.565Z,44.70
2018-08-03T12:31:26.106Z,44.20
2018-08-03T12:33:55.518Z,43.90
2018-08-03T12:36:24.982Z,43.90
2018-08-03T12:38:54.440Z,42.60
2018-08-03T12:41:23.855Z,42.90
2018-08-03T12:43:53.270Z,42.80
2018-08-03T12:46:22.738Z,43.90
2018-08-03T12:48:52.185Z,44.70
2018-08-03T12:51:21.684Z,45.30
2018-08-03T12:53:51.077Z,46.30
2018-08-03T12:56:20.524Z,45.90
2018-08-03T12:58:50.419Z,45.80
2018-08-03T13:01:20.730Z,45.50
2018-08-03T13:03:50.948Z,45.20
2018-08-03T13:06:20.570Z,45.50
2018-08-03T13:08:50.097Z,45.60
2018-08-03T13:11:20.216Z,46.10
2018-08-03T13:13:50.175Z,46.90
2018-08-03T13:16:19.941Z,46.10
2018-08-03T13:18:49.380Z,46.90
2018-08-03T13:21:30.093Z,46.30
2018-08-03T13:24:01.194Z,46.60
2018-08-03T13:26:31.669Z,45.20
2018-08-03T13:29:01.417Z,42.40
2018-08-03T13:31:31.404Z,40.80
2018-08-03T13:34:00.930Z,43.20
2018-08-03T13:36:31.196Z,45.10
2018-08-03T13:39:00.691Z,44.50
2018-08-03T13:41:30.408Z,45.50
2018-08-03T13:43:59.948Z,43.40
2018-08-03T13:46:29.377Z,44.00
2018-08-03T13:48:58.819Z,43.30
2018-08-03T13:51:28.347Z,39.20
2018-08-03T13:53:57.760Z,39.80
2018-08-03T13:56:27.197Z,41.80
2018-08-03T13:58:56.637Z,42.00
2018-08-03T14:01:38.234Z,42.20
2018-08-03T14:04:07.780Z,42.60
2018-08-03T14:06:37.833Z,40.70
2018-08-03T14:09:08.084Z,41.10
2018-08-03T14:11:59.212Z,41.80
2018-08-03T14:14:59.571Z,41.80
2018-08-03T14:17:46.365Z,41.70
2018-08-03T14:20:38.533Z,42.50
2018-08-03T14:23:08.588Z,41.80
2018-08-03T14:25:38.038Z,39.70
2018-08-03T14:28:07.540Z,41.70
2018-08-03T14:30:37.064Z,42.70
2018-08-03T14:33:06.556Z,43.90
2018-08-03T14:35:36.115Z,44.30
2018-08-03T14:38:05.828Z,44.60
2018-08-03T14:40:35.521Z,43.70
2018-08-03T14:43:05.276Z,44.20
2018-08-03T14:45:34.926Z,45.20
2018-08-03T14:48:04.546Z,44.40
2018-08-03T14:50:34.142Z,44.50
2018-08-03T14:53:03.768Z,45.40
2018-08-03T14:55:33.275Z,46.50
2018-08-03T14:58:02.717Z,46.60
2018-08-03T15:00:32.733Z,46.60
2018-08-03T15:03:04.153Z,46.20
2018-08-03T15:05:33.657Z,46.00
2018-08-03T15:08:03.155Z,46.60
2018-08-03T15:10:32.937Z,45.20
2018-08-03T15:13:02.589Z,46.10
2018-08-03T15:15:32.296Z,46.70
2018-08-03T15:18:01.789Z,46.30
2018-08-03T15:20:31.232Z,46.00
2018-08-03T15:23:01.164Z,45.40
2018-08-03T15:25:30.638Z,45.40
2018-08-03T15:28:00.127Z,46.20
2018-08-03T15:30:30.357Z,46.40
2018-08-03T15:32:59.998Z,46.00
2018-08-03T15:35:29.972Z,46.90
2018-08-03T15:37:59.880Z,46.10
2018-08-03T15:40:29.346Z,46.20
2018-08-03T15:42:58.809Z,46.70
2018-08-03T15:45:28.816Z,46.20
2018-08-03T15:47:58.267Z,47.30
2018-08-03T15:50:27.765Z,47.90
2018-08-03T15:52:57.201Z,47.80
2018-08-03T15:55:26.654Z,48.30
2018-08-03T15:57:56.361Z,47.10
2018-08-03T16:00:25.752Z,48.10
2018-08-03T16:02:55.821Z,47.20
2018-08-03T16:05:25.260Z,46.30
2018-08-03T16:07:54.726Z,47.40
2018-08-03T16:10:24.485Z,47.10
2018-08-03T16:12:54.381Z,47.70
2018-08-03T16:15:24.329Z,47.00
2018-08-03T16:20:23.477Z,47.50
2018-08-03T16:22:52.950Z,48.20
2018-08-03T16:30:21.257Z,48.00
2018-08-03T16:35:20.035Z,49.00
2018-08-03T16:37:49.904Z,48.20
2018-08-03T16:40:19.845Z,48.30
2018-08-03T16:42:49.660Z,47.90
2018-08-03T16:45:19.180Z,48.40
2018-08-03T16:47:48.621Z,47.40
2018-08-03T16:50:18.159Z,48.50
2018-08-03T16:52:47.640Z,47.10
2018-08-03T16:55:17.098Z,48.00
2018-08-03T16:57:47.015Z,46.80
2018-08-03T17:00:18.622Z,48.20
2018-08-03T17:02:48.552Z,47.10
2018-08-03T17:05:18.269Z,46.90
2018-08-03T17:07:47.985Z,48.10
2018-08-03T17:10:17.844Z,48.70
2018-08-03T17:15:16.885Z,49.60
2018-08-03T17:17:46.564Z,49.70
2018-08-03T17:22:45.413Z,50.60
2018-08-03T17:25:15.285Z,50.20
2018-08-03T17:30:14.135Z,50.00
2018-08-03T17:32:43.840Z,50.20
2018-08-03T17:35:13.665Z,48.80
2018-08-03T17:37:43.357Z,48.50
2018-08-03T17:40:13.265Z,49.50
2018-08-03T17:42:43.130Z,50.20
2018-08-03T17:50:11.156Z,51.90
2018-08-03T17:52:41.022Z,52.20
2018-08-03T17:55:10.777Z,52.40
2018-08-03T17:57:40.437Z,53.00
2018-08-03T18:00:10.373Z,53.10
2018-08-03T18:02:40.163Z,53.10
2018-08-03T18:05:10.028Z,53.10
2018-08-03T18:07:39.911Z,53.30
2018-08-03T18:10:09.754Z,53.80
2018-08-03T18:12:39.425Z,53.90
2018-08-03T18:15:09.688Z,54.00
2018-08-03T18:17:39.358Z,54.30
2018-08-03T18:20:09.185Z,54.60
2018-08-03T18:22:38.970Z,54.80
2018-08-03T18:25:08.829Z,55.20
2018-08-03T18:27:38.611Z,55.30
2018-08-03T18:30:08.661Z,55.40
2018-08-03T18:32:38.445Z,55.40
2018-08-03T18:35:08.289Z,55.40
2018-08-03T18:37:38.221Z,55.40
2018-08-03T18:40:09.753Z,55.50
2018-08-03T18:42:39.801Z,55.70
2018-08-03T18:45:09.830Z,56.00
2018-08-03T18:47:39.646Z,56.10
2018-08-03T18:50:09.472Z,55.70
2018-08-03T18:52:39.285Z,55.30
2018-08-03T18:55:09.089Z,55.30
2018-08-03T18:57:38.855Z,55.30
2018-08-03T19:00:08.765Z,55.20
2018-08-03T19:02:38.409Z,55.40
2018-08-03T19:05:08.819Z,55.60
2018-08-03T19:07:38.554Z,55.70
2018-08-03T19:10:08.496Z,56.10
2018-08-03T19:12:38.069Z,56.90
2018-08-03T19:15:08.272Z,57.90
2018-08-03T19:17:38.072Z,58.30
2018-08-03T19:20:08.713Z,58.20
2018-08-03T19:22:38.560Z,58.40
2018-08-03T19:25:08.647Z,59.60
2018-08-03T19:27:38.557Z,59.40
2018-08-03T19:30:08.362Z,59.90
2018-08-03T19:32:38.009Z,60.40
2018-08-03T19:35:07.884Z,61.10
2018-08-03T19:37:37.650Z,60.60
2018-08-03T19:40:08.145Z,61.40
2018-08-03T19:42:37.846Z,62.30
2018-08-03T19:45:07.955Z,62.30
2018-08-03T19:47:37.541Z,62.30
2018-08-03T19:50:08.088Z,63.20
2018-08-03T19:52:37.771Z,63.40
2018-08-03T19:55:07.493Z,63.00
2018-08-03T19:57:37.324Z,64.10
2018-08-03T20:00:08.908Z,64.30
2018-08-03T20:02:38.820Z,63.60
2018-08-03T20:05:09.407Z,65.10
2018-08-03T20:07:39.084Z,65.50
2018-08-03T20:10:09.192Z,65.50
2018-08-03T20:12:38.895Z,66.00
2018-08-03T20:15:08.925Z,66.10
2018-08-03T20:17:38.749Z,66.40
2018-08-03T20:20:08.704Z,66.80
2018-08-03T20:22:38.388Z,67.10
2018-08-03T20:25:08.520Z,67.30
2018-08-03T20:27:38.353Z,67.40
2018-08-03T20:30:08.971Z,67.80
2018-08-03T20:32:39.005Z,68.20
2018-08-03T20:35:08.913Z,68.90
2018-08-03T20:37:38.854Z,68.00
2018-08-03T20:40:09.658Z,67.80
2018-08-03T20:42:39.583Z,67.50
2018-08-03T20:47:38.722Z,68.40
2018-08-03T20:50:08.583Z,67.80
2018-08-03T20:55:07.687Z,68.20
2018-08-03T20:57:37.492Z,68.00
2018-08-03T21:00:07.760Z,68.00
2018-08-03T21:02:37.604Z,68.10
2018-08-03T21:05:08.329Z,68.60
2018-08-03T21:07:38.204Z,68.80
2018-08-03T21:10:08.039Z,69.30
2018-08-03T21:12:37.943Z,69.60
2018-08-03T21:15:08.904Z,69.60
2018-08-03T21:17:39.214Z,69.80
2018-08-03T21:20:09.695Z,69.50
2018-08-03T21:22:40.884Z,69.80
2018-08-03T21:25:10.656Z,70.30
2018-08-03T21:27:40.438Z,70.70
2018-08-03T21:30:11.097Z,71.00
2018-08-03T21:32:40.963Z,71.00
2018-08-03T21:35:10.772Z,70.90
2018-08-03T21:37:40.404Z,71.40
2018-08-03T21:40:10.397Z,71.80
2018-08-03T21:42:40.145Z,71.50
2018-08-03T21:45:11.283Z,71.80
2018-08-03T21:47:40.931Z,71.60
2018-08-03T21:50:11.084Z,71.60
2018-08-03T21:52:41.332Z,72.70
2018-08-03T21:55:11.472Z,72.60
2018-08-03T21:57:42.490Z,73.10
2018-08-03T22:00:16.641Z,73.60
2018-08-03T22:02:47.168Z,73.10
2018-08-03T22:05:17.100Z,73.60
2018-08-03T22:07:47.917Z,73.50
2018-08-03T22:10:18.739Z,73.70
2018-08-03T22:12:49.064Z,74.10
2018-08-03T22:15:19.533Z,73.60
2018-08-03T22:17:49.097Z,73.70
2018-08-03T22:20:19.067Z,73.30
2018-08-03T22:22:49.237Z,73.40
2018-08-03T22:25:20.053Z,73.40
2018-08-03T22:27:51.116Z,73.30
2018-08-03T22:30:21.609Z,73.30
2018-08-03T22:32:51.287Z,72.90
2018-08-03T22:35:21.585Z,72.70
2018-08-03T22:37:51.345Z,72.60
2018-08-03T22:40:21.123Z,72.70
2018-08-03T22:42:51.400Z,72.80
2018-08-03T22:45:21.149Z,73.10
2018-08-03T22:47:51.215Z,73.60
2018-08-03T22:50:22.297Z,73.40
2018-08-03T22:52:53.363Z,73.60
2018-08-03T22:55:23.272Z,73.80
2018-08-03T22:57:56.105Z,74.70
2018-08-03T23:00:26.963Z,74.80
2018-08-03T23:02:57.360Z,74.60
2018-08-03T23:05:27.147Z,75.00
2018-08-03T23:07:57.308Z,75.80
2018-08-03T23:10:27.385Z,75.80
2018-08-03T23:12:57.528Z,76.70
2018-08-03T23:15:27.266Z,75.80
2018-08-03T23:17:57.068Z,75.90
2018-08-03T23:20:26.774Z,75.80
2018-08-03T23:22:56.487Z,76.00
2018-08-03T23:25:26.400Z,75.50
2018-08-03T23:27:56.084Z,75.70
2018-08-03T23:30:25.769Z,75.90
2018-08-03T23:32:55.620Z,75.50
2018-08-03T23:35:25.501Z,75.60
2018-08-03T23:37:55.253Z,75.90
2018-08-03T23:40:25.115Z,76.00
2018-08-03T23:45:24.361Z,76.20
2018-08-03T23:47:54.043Z,76.20
2018-08-03T23:50:23.701Z,76.30
2018-08-03T23:52:53.392Z,76.20
2018-08-03T23:55:23.064Z,76.50
2018-08-03T23:57:52.736Z,77.00
